createdAt,value
2019-04-16T00:03:54.896Z,7.00
2019-04-16T00:06:25.121Z,7.00
2019-04-16T00:08:57.317Z,6.90
2019-04-16T00:11:39.646Z,6.90
2019-04-16T00:17:00.311Z,6.90
2019-04-16T00:19:28.907Z,6.80
2019-04-16T00:21:58.992Z,6.70
2019-04-16T00:24:29.100Z,6.70
2019-04-16T00:26:59.095Z,6.70
2019-04-16T00:29:32.667Z,6.70
2019-04-16T00:31:59.184Z,6.60
2019-04-16T00:34:27.628Z,6.50
2019-04-16T00:36:56.087Z,6.50
2019-04-16T00:39:25.524Z,6.50
2019-04-16T00:42:13.579Z,6.50
2019-04-16T00:44:42.037Z,6.50
2019-04-16T00:47:10.479Z,6.40
2019-04-16T00:49:38.932Z,6.40
2019-04-16T00:52:07.464Z,6.50
2019-04-16T00:54:35.918Z,6.50
2019-04-16T00:57:04.589Z,6.60
2019-04-16T00:59:33.047Z,6.70
2019-04-16T01:02:01.487Z,6.80
2019-04-16T01:04:30.004Z,6.90
2019-04-16T01:06:58.488Z,6.90
2019-04-16T01:09:27.013Z,6.90
2019-04-16T01:11:55.452Z,6.90
2019-04-16T01:14:24.238Z,6.90
2019-04-16T01:16:54.173Z,6.90
2019-04-16T01:19:22.625Z,6.90
2019-04-16T01:21:51.084Z,6.90
2019-04-16T01:24:20.205Z,7.00
2019-04-16T01:26:49.564Z,7.00
2019-04-16T01:29:18.023Z,7.00
2019-04-16T01:32:00.435Z,7.00
2019-04-16T01:34:33.166Z,7.20
2019-04-16T01:40:11.569Z,7.20
2019-04-16T01:42:40.012Z,7.20
2019-04-16T01:45:08.596Z,7.20
2019-04-16T01:47:37.440Z,7.10
2019-04-16T01:50:26.745Z,7.10
2019-04-16T01:52:55.208Z,7.10
2019-04-16T01:55:25.768Z,7.10
2019-04-16T01:57:53.828Z,7.00
2019-04-16T02:00:22.290Z,7.00
2019-04-16T02:02:50.733Z,7.00
2019-04-16T02:05:20.342Z,7.00
2019-04-16T02:07:49.516Z,6.90
2019-04-16T02:10:17.963Z,6.90
2019-04-16T02:12:46.415Z,6.90
2019-04-16T02:15:15.033Z,6.90
2019-04-16T02:17:43.479Z,6.90
2019-04-16T02:20:12.363Z,6.80
2019-04-16T02:22:42.309Z,6.90
2019-04-16T02:25:11.132Z,6.90
2019-04-16T02:27:39.649Z,6.90
2019-04-16T02:30:08.718Z,6.80
2019-04-16T02:32:37.189Z,6.80
2019-04-16T02:35:07.282Z,6.70
2019-04-16T02:37:37.300Z,6.70
2019-04-16T02:40:06.875Z,6.60
2019-04-16T02:42:35.444Z,6.60
2019-04-16T02:45:04.437Z,6.60
2019-04-16T02:47:39.675Z,6.60
2019-04-16T02:50:05.282Z,6.60
2019-04-16T02:52:41.241Z,6.60
2019-04-16T02:55:11.445Z,6.60
2019-04-16T02:58:01.247Z,6.60
2019-04-16T03:00:31.407Z,6.50
2019-04-16T03:03:01.492Z,6.60
2019-04-16T03:05:34.213Z,6.60
2019-04-16T03:08:04.822Z,6.80
2019-04-16T03:10:33.034Z,6.80
2019-04-16T03:13:01.564Z,6.80
2019-04-16T03:15:49.782Z,6.80
2019-04-16T03:18:19.959Z,6.80
2019-04-16T03:20:48.409Z,6.80
2019-04-16T03:23:16.854Z,6.90
2019-04-16T03:25:45.332Z,6.90
2019-04-16T03:28:14.161Z,7.00
2019-04-16T03:30:42.973Z,7.00
2019-04-16T03:33:14.260Z,7.00
2019-04-16T03:35:41.768Z,7.00
2019-04-16T03:38:10.211Z,6.90
2019-04-16T03:40:38.680Z,6.90
2019-04-16T03:43:07.131Z,7.00
2019-04-16T03:45:37.595Z,7.00
2019-04-16T03:48:05.751Z,6.90
2019-04-16T03:50:34.202Z,6.90
2019-04-16T03:53:02.648Z,6.90
2019-04-16T03:55:31.115Z,6.90
2019-04-16T03:57:59.562Z,7.00
2019-04-16T04:00:28.011Z,7.10
2019-04-16T04:02:56.484Z,7.10
2019-04-16T04:05:24.925Z,7.00
2019-04-16T04:07:55.282Z,7.10
2019-04-16T04:10:30.908Z,7.10
2019-04-16T04:12:53.732Z,7.10
2019-04-16T04:15:26.007Z,7.10
2019-04-16T04:17:52.573Z,7.10
2019-04-16T04:20:21.097Z,7.00
2019-04-16T04:22:49.611Z,7.00
2019-04-16T04:25:18.154Z,7.00
2019-04-16T04:27:47.626Z,7.00
2019-04-16T04:30:18.312Z,7.00
2019-04-16T04:32:47.717Z,7.10
2019-04-16T04:35:20.545Z,7.20
2019-04-16T04:37:46.617Z,7.30
2019-04-16T04:40:16.170Z,7.40
2019-04-16T04:42:45.256Z,7.50
2019-04-16T04:45:13.920Z,7.50
2019-04-16T04:47:42.420Z,7.60
2019-04-16T04:50:11.001Z,7.60
2019-04-16T04:52:39.444Z,7.70
2019-04-16T04:55:08.056Z,7.80
2019-04-16T04:57:36.493Z,7.80
2019-04-16T05:00:09.751Z,7.80
2019-04-16T05:02:44.464Z,7.80
2019-04-16T05:05:17.728Z,7.80
2019-04-16T05:07:46.185Z,7.80
2019-04-16T05:10:14.655Z,7.80
2019-04-16T05:12:43.185Z,7.70
2019-04-16T05:15:11.869Z,7.80
2019-04-16T05:17:40.332Z,7.80
2019-04-16T05:20:09.235Z,7.80
2019-04-16T05:22:37.692Z,7.80
2019-04-16T05:25:06.659Z,7.80
2019-04-16T05:27:40.216Z,7.80
2019-04-16T05:30:06.735Z,7.80
2019-04-16T05:32:35.304Z,7.80
2019-04-16T05:35:09.262Z,7.90
2019-04-16T05:37:36.367Z,7.90
2019-04-16T05:40:08.400Z,7.90
2019-04-16T05:42:36.852Z,8.00
2019-04-16T05:45:29.224Z,8.00
2019-04-16T05:47:57.740Z,8.10
2019-04-16T05:50:29.625Z,8.10
2019-04-16T05:52:56.477Z,8.10
2019-04-16T05:55:42.919Z,8.10
2019-04-16T05:58:11.388Z,8.10
2019-04-16T06:00:42.334Z,8.10
2019-04-16T06:03:11.005Z,8.20
2019-04-16T06:05:39.543Z,8.20
2019-04-16T06:08:11.486Z,8.30
2019-04-16T06:10:40.668Z,8.30
2019-04-16T06:13:12.688Z,8.40
2019-04-16T06:15:42.588Z,8.50
2019-04-16T06:23:40.940Z,8.90
2019-04-16T06:29:20.141Z,9.10
2019-04-16T06:32:12.242Z,9.30
2019-04-16T06:34:42.531Z,9.40
2019-04-16T06:37:26.572Z,9.50
2019-04-16T06:40:09.565Z,9.60
2019-04-16T06:42:42.124Z,9.60
2019-04-16T06:50:47.867Z,9.80
2019-04-16T06:53:23.859Z,9.90
2019-04-16T06:55:53.363Z,10.00
2019-04-16T06:58:27.887Z,10.10
2019-04-16T07:00:58.271Z,10.20
2019-04-16T07:03:44.755Z,10.30
2019-04-16T07:12:00.036Z,10.70
2019-04-16T07:14:28.482Z,10.80
2019-04-16T07:16:59.921Z,10.90
2019-04-16T07:19:27.431Z,11.00
2019-04-16T07:21:56.101Z,11.10
2019-04-16T07:24:30.151Z,11.10
2019-04-16T07:26:56.552Z,11.30
2019-04-16T07:29:32.661Z,11.40
2019-04-16T07:32:06.965Z,11.50
2019-04-16T07:34:37.199Z,11.60
2019-04-16T07:37:25.410Z,11.70
2019-04-16T07:40:01.298Z,11.80
2019-04-16T07:42:34.421Z,11.80
2019-04-16T07:45:05.177Z,11.80
2019-04-16T07:47:38.327Z,11.90
2019-04-16T07:50:42.886Z,11.90
2019-04-16T07:58:54.743Z,12.20
2019-04-16T08:01:24.408Z,12.10
2019-04-16T08:03:52.856Z,12.20
2019-04-16T08:06:21.311Z,12.30
2019-04-16T08:08:49.792Z,12.40
2019-04-16T08:11:18.257Z,12.40
2019-04-16T08:13:46.871Z,12.50
2019-04-16T08:16:15.409Z,12.50
2019-04-16T08:18:50.312Z,12.50
2019-04-16T08:21:22.311Z,12.40
2019-04-16T08:23:52.878Z,12.40
2019-04-16T08:26:21.132Z,12.50
2019-04-16T08:28:49.652Z,12.50
2019-04-16T08:31:19.753Z,12.50
2019-04-16T08:33:48.199Z,12.60
2019-04-16T08:36:16.648Z,12.70
2019-04-16T08:38:45.132Z,12.90
2019-04-16T08:41:19.750Z,13.10
2019-04-16T08:43:43.783Z,13.20
2019-04-16T08:46:12.267Z,13.50
2019-04-16T08:48:40.783Z,13.50
2019-04-16T08:51:09.311Z,13.70
2019-04-16T08:53:37.777Z,13.80
2019-04-16T08:56:06.214Z,13.70
2019-04-16T08:58:35.670Z,13.80
2019-04-16T09:01:06.422Z,13.90
2019-04-16T09:03:34.875Z,13.90
2019-04-16T09:06:04.966Z,14.20
2019-04-16T09:08:35.073Z,14.40
2019-04-16T09:11:04.547Z,14.30
2019-04-16T09:13:40.892Z,14.20
2019-04-16T09:16:10.288Z,14.10
2019-04-16T09:21:44.146Z,14.10
2019-04-16T09:24:17.296Z,14.10
2019-04-16T09:26:47.423Z,14.20
2019-04-16T09:29:26.462Z,14.20
2019-04-16T09:32:02.085Z,14.40
2019-04-16T09:34:35.725Z,14.50
2019-04-16T09:37:12.599Z,14.50
2019-04-16T09:39:45.669Z,14.60
2019-04-16T09:42:14.120Z,15.00
2019-04-16T09:44:42.612Z,15.00
2019-04-16T09:47:11.066Z,15.20
2019-04-16T09:49:39.593Z,15.30
2019-04-16T09:52:08.074Z,15.40
2019-04-16T09:54:36.513Z,15.60
2019-04-16T09:57:05.132Z,15.70
2019-04-16T09:59:35.248Z,15.60
2019-04-16T10:02:05.338Z,15.20
2019-04-16T10:04:33.783Z,15.40
2019-04-16T10:07:02.331Z,16.00
2019-04-16T10:09:30.774Z,15.90
2019-04-16T10:11:59.415Z,16.10
2019-04-16T10:14:27.937Z,16.10
2019-04-16T10:16:56.496Z,16.10
2019-04-16T10:19:24.989Z,16.40
2019-04-16T10:21:54.673Z,17.00
2019-04-16T10:24:25.332Z,16.90
2019-04-16T10:26:56.893Z,17.20
2019-04-16T10:29:25.768Z,16.90
2019-04-16T10:31:55.575Z,16.70
2019-04-16T10:34:24.144Z,16.80
2019-04-16T10:37:11.994Z,16.70
2019-04-16T10:39:42.126Z,16.70
2019-04-16T10:42:12.239Z,16.70
2019-04-16T10:44:59.002Z,16.60
2019-04-16T10:47:44.492Z,16.50
2019-04-16T10:50:26.642Z,16.70
2019-04-16T10:56:14.508Z,16.50
2019-04-16T10:58:47.625Z,16.70
2019-04-16T11:01:20.428Z,16.80
2019-04-16T11:04:08.744Z,16.90
2019-04-16T11:06:41.763Z,17.00
2019-04-16T11:09:10.385Z,17.00
2019-04-16T11:11:39.012Z,16.90
2019-04-16T11:14:07.592Z,17.00
2019-04-16T11:16:37.500Z,17.10
2019-04-16T11:19:06.017Z,16.90
2019-04-16T11:21:34.499Z,17.00
2019-04-16T11:24:03.130Z,16.80
2019-04-16T11:26:31.883Z,16.80
2019-04-16T11:29:00.379Z,16.80
2019-04-16T11:31:29.045Z,16.90
2019-04-16T11:33:57.571Z,17.00
2019-04-16T11:36:30.592Z,17.10
2019-04-16T11:38:56.352Z,16.80
2019-04-16T11:41:24.955Z,17.00
2019-04-16T11:43:53.437Z,17.10
2019-04-16T11:46:22.268Z,16.90
2019-04-16T11:48:50.787Z,16.90
2019-04-16T11:51:19.345Z,17.00
2019-04-16T11:53:47.891Z,17.10
2019-04-16T11:56:16.392Z,17.20
2019-04-16T11:58:46.045Z,17.20
2019-04-16T12:01:17.124Z,17.30
2019-04-16T12:03:56.119Z,17.30
2019-04-16T12:06:28.845Z,17.20
2019-04-16T12:08:59.240Z,17.20
2019-04-16T12:11:35.528Z,17.30
2019-04-16T12:14:32.268Z,17.40
2019-04-16T12:17:02.229Z,17.00
2019-04-16T12:23:02.077Z,16.80
2019-04-16T12:25:38.270Z,16.90
2019-04-16T12:28:17.678Z,16.90
2019-04-16T12:30:56.397Z,16.90
2019-04-16T12:33:44.108Z,17.00
2019-04-16T12:36:30.585Z,17.30
2019-04-16T12:39:19.605Z,17.40
2019-04-16T12:42:00.026Z,17.50
2019-04-16T12:44:44.159Z,17.60
2019-04-16T12:47:04.354Z,18.20
2019-04-16T12:49:51.010Z,17.90
2019-04-16T12:52:37.585Z,18.10
2019-04-16T12:55:18.434Z,18.40
2019-04-16T12:58:04.569Z,18.30
2019-04-16T13:00:37.371Z,18.30
2019-04-16T13:03:07.527Z,19.10
2019-04-16T13:05:44.705Z,18.90
2019-04-16T13:08:14.888Z,18.90
2019-04-16T13:10:59.782Z,18.70
2019-04-16T13:13:46.475Z,18.20
2019-04-16T13:16:35.564Z,17.90
2019-04-16T13:19:04.207Z,17.70
2019-04-16T13:21:52.500Z,17.70
2019-04-16T13:24:25.658Z,17.70
2019-04-16T13:27:13.539Z,17.70
2019-04-16T13:29:42.076Z,17.80
2019-04-16T13:32:10.603Z,18.00
2019-04-16T13:34:39.075Z,18.10
2019-04-16T13:37:07.753Z,18.60
2019-04-16T13:39:40.300Z,18.60
2019-04-16T13:42:08.064Z,18.40
2019-04-16T13:44:41.302Z,18.70
2019-04-16T13:47:09.858Z,19.10
2019-04-16T13:52:25.264Z,19.20
2019-04-16T13:54:57.761Z,18.70
2019-04-16T13:57:27.848Z,18.70
2019-04-16T14:00:13.260Z,18.30
2019-04-16T14:02:43.388Z,18.30
2019-04-16T14:05:12.189Z,17.90
2019-04-16T14:07:40.743Z,18.10
2019-04-16T14:10:09.519Z,17.90
2019-04-16T14:12:42.304Z,17.90
2019-04-16T14:15:10.086Z,17.50
2019-04-16T14:17:51.925Z,17.40
2019-04-16T14:20:36.841Z,17.30
2019-04-16T14:25:54.572Z,17.20
2019-04-16T14:28:23.088Z,17.20
2019-04-16T14:30:51.629Z,17.00
2019-04-16T14:35:58.525Z,17.20
2019-04-16T14:38:28.727Z,17.30
2019-04-16T14:40:57.340Z,17.10
2019-04-16T14:43:42.848Z,16.90
2019-04-16T14:46:11.365Z,16.90
2019-04-16T14:48:45.449Z,16.70
2019-04-16T14:51:10.498Z,16.40
2019-04-16T14:53:51.271Z,16.30
2019-04-16T14:59:06.491Z,16.10
2019-04-16T15:01:36.600Z,15.90
2019-04-16T15:04:15.604Z,15.70
2019-04-16T15:06:49.114Z,15.60
2019-04-16T15:09:20.308Z,15.60
2019-04-16T15:12:08.125Z,15.60
2019-04-16T15:14:38.769Z,15.60
2019-04-16T15:17:13.218Z,15.40
2019-04-16T15:19:46.622Z,15.40
2019-04-16T15:22:25.910Z,15.30
2019-04-16T15:28:15.324Z,15.50
2019-04-16T15:33:49.392Z,15.00
2019-04-16T15:36:22.284Z,15.00
2019-04-16T15:41:52.019Z,14.90
2019-04-16T15:44:23.556Z,14.90
2019-04-16T15:47:13.899Z,14.80
2019-04-16T15:49:49.520Z,14.90
2019-04-16T15:55:29.709Z,14.60
2019-04-16T15:58:07.735Z,14.70
2019-04-16T16:03:25.404Z,14.70
2019-04-16T16:06:10.561Z,14.70
2019-04-16T16:08:59.991Z,14.50
2019-04-16T16:14:12.900Z,14.40
2019-04-16T16:16:42.404Z,14.30
2019-04-16T16:19:12.118Z,14.50
2019-04-16T16:21:40.834Z,14.50
2019-04-16T16:24:09.322Z,14.40
2019-04-16T16:26:37.773Z,14.30
2019-04-16T16:29:06.219Z,14.40
2019-04-16T16:31:35.707Z,14.40
2019-04-16T16:34:08.532Z,14.40
2019-04-16T16:36:36.542Z,14.30
2019-04-16T16:39:07.324Z,14.30
2019-04-16T16:41:35.789Z,14.30
2019-04-16T16:44:04.806Z,14.30
2019-04-16T16:46:37.667Z,14.40
2019-04-16T16:49:06.197Z,14.40
2019-04-16T16:51:34.798Z,14.40
2019-04-16T16:54:04.908Z,14.40
2019-04-16T16:56:37.823Z,14.20
2019-04-16T16:59:33.897Z,14.20
2019-04-16T17:02:19.332Z,14.10
2019-04-16T17:05:01.480Z,14.10
2019-04-16T17:07:30.005Z,14.00
2019-04-16T17:09:58.532Z,14.00
2019-04-16T17:12:27.072Z,14.00
2019-04-16T17:14:55.652Z,13.90
2019-04-16T17:17:24.102Z,13.90
2019-04-16T17:19:52.656Z,13.80
2019-04-16T17:22:21.110Z,13.80
2019-04-16T17:24:49.590Z,13.90
2019-04-16T17:27:18.453Z,13.90
2019-04-16T17:29:49.850Z,13.70
2019-04-16T17:32:17.226Z,13.70
2019-04-16T17:34:45.772Z,13.70
2019-04-16T17:37:14.233Z,13.70
2019-04-16T17:39:47.370Z,13.60
2019-04-16T17:42:17.482Z,13.70
2019-04-16T17:45:04.053Z,13.60
2019-04-16T17:47:48.966Z,13.50
2019-04-16T17:50:39.350Z,13.50
2019-04-16T17:53:09.919Z,13.50
2019-04-16T17:55:42.973Z,13.40
2019-04-16T17:58:13.089Z,13.40
2019-04-16T18:03:40.968Z,13.30
2019-04-16T18:06:11.126Z,13.20
2019-04-16T18:14:36.497Z,12.90
2019-04-16T18:17:15.283Z,12.90
2019-04-16T18:20:01.569Z,12.90
2019-04-16T18:22:34.769Z,12.80
2019-04-16T18:25:12.082Z,12.80
2019-04-16T18:27:42.247Z,12.70
2019-04-16T18:30:29.883Z,12.70
2019-04-16T18:33:14.856Z,12.70
2019-04-16T18:41:29.419Z,12.70
2019-04-16T18:44:14.436Z,12.50
2019-04-16T18:49:26.925Z,12.40
2019-04-16T18:51:55.473Z,12.30
2019-04-16T18:54:24.038Z,12.20
2019-04-16T18:56:52.479Z,12.10
2019-04-16T18:59:20.957Z,12.20
2019-04-16T19:01:51.048Z,12.20
2019-04-16T19:04:19.495Z,12.20
2019-04-16T19:06:47.968Z,12.20
2019-04-16T19:09:16.639Z,12.10
2019-04-16T19:11:45.088Z,12.10
2019-04-16T19:14:14.017Z,12.10
2019-04-16T19:16:42.677Z,12.00
2019-04-16T19:19:11.202Z,12.00
2019-04-16T19:21:42.451Z,11.90
2019-04-16T19:24:09.877Z,11.90
2019-04-16T19:26:38.393Z,11.90
2019-04-16T19:29:13.349Z,11.90
2019-04-16T19:31:37.108Z,12.00
2019-04-16T19:34:09.637Z,12.00
2019-04-16T19:36:35.862Z,11.90
2019-04-16T19:39:07.094Z,11.90
2019-04-16T19:41:36.667Z,12.00
2019-04-16T19:44:07.189Z,12.00
2019-04-16T19:46:35.415Z,12.00
2019-04-16T19:49:03.972Z,12.00
2019-04-16T19:51:32.598Z,12.00
2019-04-16T19:54:01.384Z,11.90
2019-04-16T19:56:33.292Z,11.90
2019-04-16T19:59:00.104Z,11.80
2019-04-16T20:01:29.318Z,11.80
2019-04-16T20:03:57.850Z,11.80
2019-04-16T20:06:26.407Z,11.80
2019-04-16T20:08:54.943Z,11.80
2019-04-16T20:11:24.328Z,11.70
2019-04-16T20:13:53.604Z,11.70
2019-04-16T20:16:22.260Z,11.70
2019-04-16T20:18:51.647Z,11.70
2019-04-16T20:21:20.553Z,11.60
2019-04-16T20:23:49.205Z,11.60
2019-04-16T20:26:17.757Z,11.60
2019-04-16T20:28:48.564Z,11.60
2019-04-16T20:31:16.482Z,11.60
2019-04-16T20:33:45.968Z,11.60
2019-04-16T20:36:14.920Z,11.50
2019-04-16T20:38:43.578Z,11.50
2019-04-16T20:41:12.234Z,11.50
2019-04-16T20:43:40.920Z,11.50
2019-04-16T20:46:09.461Z,11.40
2019-04-16T20:48:38.088Z,11.40
2019-04-16T20:51:06.565Z,11.40
2019-04-16T20:53:37.940Z,11.40
2019-04-16T20:56:05.262Z,11.40
2019-04-16T20:58:33.857Z,11.40
2019-04-16T21:01:03.448Z,11.30
2019-04-16T21:03:31.915Z,11.30
2019-04-16T21:06:00.473Z,11.30
2019-04-16T21:08:29.007Z,11.30
2019-04-16T21:10:59.987Z,11.30
2019-04-16T21:13:28.773Z,11.30
2019-04-16T21:16:01.126Z,11.30
2019-04-16T21:18:27.451Z,11.30
2019-04-16T21:20:56.258Z,11.20
2019-04-16T21:23:24.994Z,11.20
2019-04-16T21:25:53.615Z,11.20
2019-04-16T21:28:23.945Z,11.20
2019-04-16T21:30:59.081Z,11.10
2019-04-16T21:33:29.272Z,11.10
2019-04-16T21:36:37.924Z,11.10
2019-04-16T21:39:09.278Z,11.10
2019-04-16T21:41:37.784Z,11.10
2019-04-16T21:44:11.798Z,11.10
2019-04-16T21:46:42.476Z,11.00
2019-04-16T21:49:11.012Z,11.00
2019-04-16T21:51:41.104Z,11.00
2019-04-16T21:54:09.659Z,11.00
2019-04-16T21:56:39.798Z,10.90
2019-04-16T21:59:08.368Z,10.90
2019-04-16T22:04:18.662Z,10.90
2019-04-16T22:06:49.147Z,10.90
2019-04-16T22:09:17.387Z,10.90
2019-04-16T22:11:45.887Z,10.80
2019-04-16T22:14:14.512Z,10.80
2019-04-16T22:16:43.072Z,10.90
2019-04-16T22:19:53.762Z,10.90
2019-04-16T22:22:14.918Z,10.90
2019-04-16T22:24:43.512Z,10.80
2019-04-16T22:27:11.987Z,10.80
2019-04-16T22:29:40.513Z,10.70
2019-04-16T22:32:08.960Z,10.60
2019-04-16T22:34:37.455Z,10.60
2019-04-16T22:37:24.377Z,10.60
2019-04-16T22:39:57.179Z,10.50
2019-04-16T22:42:29.780Z,10.50
2019-04-16T22:45:17.073Z,10.50
2019-04-16T22:47:47.760Z,10.50
2019-04-16T22:50:17.358Z,10.50
2019-04-16T22:52:46.212Z,10.50
2019-04-16T22:55:14.813Z,10.50
2019-04-16T22:57:43.259Z,10.50
2019-04-16T23:00:31.801Z,10.40
2019-04-16T23:03:00.247Z,10.60
2019-04-16T23:05:30.995Z,10.50
2019-04-16T23:07:59.032Z,10.50
2019-04-16T23:10:50.603Z,10.40
2019-04-16T23:13:17.052Z,10.40
2019-04-16T23:15:45.780Z,10.40
2019-04-16T23:18:17.235Z,10.40
2019-04-16T23:20:44.421Z,10.40
2019-04-16T23:23:18.167Z,10.50
2019-04-16T23:25:43.113Z,10.50
2019-04-16T23:28:11.851Z,10.50
2019-04-16T23:30:40.380Z,10.50
2019-04-16T23:33:08.938Z,10.50
2019-04-16T23:35:43.163Z,10.50
2019-04-16T23:38:07.867Z,10.50
2019-04-16T23:40:36.376Z,10.50
2019-04-16T23:43:09.800Z,10.40
2019-04-16T23:45:51.944Z,10.40
2019-04-16T23:48:28.081Z,10.40
2019-04-16T23:51:02.351Z,10.40
2019-04-16T23:53:48.916Z,10.30
2019-04-16T23:56:20.704Z,10.30
